Time;durP1;ratioP1;P1;durP2;ratioP2;P2;SDS_P1;SDS_P2;PMS_P1;PMS_P2;Temp;Humidity;BMP_temperature;BMP_pressure;BME280_temperature;BME280_humidity;BME280_pressure;Samples;Min_cycle;Max_cycle;Signal;HPM_P1;HPM_P2
2021/11/22 00:01:35;;;;;;;1.88;0.70;;;8.20;82.80;;;;;;4995648;28;20064;-77
2021/11/22 00:04:02;;;;;;;0.75;0.32;;;8.20;82.90;;;;;;5011828;28;20037;-76
2021/11/22 00:06:27;;;;;;;0.77;0.40;;;8.20;82.90;;;;;;4995133;28;20575;-76
2021/11/22 00:08:53;;;;;;;0.88;0.30;;;8.20;82.70;;;;;;5014251;28;20033;-77
2021/11/22 00:11:19;;;;;;;2.10;0.43;;;8.20;82.70;;;;;;5013197;28;20402;-77
2021/11/22 00:13:44;;;;;;;1.40;0.30;;;8.20;82.80;;;;;;5012016;28;20551;-77
2021/11/22 00:16:10;;;;;;;0.95;0.30;;;8.20;83.00;;;;;;5012110;28;20088;-76
2021/11/22 00:18:36;;;;;;;1.80;0.50;;;8.20;82.90;;;;;;5011862;28;20030;-77
2021/11/22 00:21:01;;;;;;;1.23;0.40;;;8.20;82.60;;;;;;5013766;28;20072;-76
2021/11/22 00:23:27;;;;;;;0.77;0.25;;;8.20;82.90;;;;;;5013546;28;20096;-76
2021/11/22 00:25:53;;;;;;;0.63;0.20;;;8.10;82.70;;;;;;4994349;28;20030;-78
2021/11/22 00:28:18;;;;;;;3.17;0.40;;;8.20;82.70;;;;;;5012567;28;20030;-76
2021/11/22 00:30:44;;;;;;;1.52;0.40;;;8.10;82.90;;;;;;4994408;28;20022;-76
2021/11/22 00:33:10;;;;;;;1.08;0.22;;;8.10;82.80;;;;;;5011922;28;20049;-78
2021/11/22 00:35:36;;;;;;;1.77;0.30;;;8.10;82.90;;;;;;5015086;28;20400;-77
2021/11/22 00:38:07;;;;;;;1.65;0.40;;;8.20;83.00;;;;;;5011704;28;20034;-78
2021/11/22 00:40:37;;;;;;;1.08;0.52;;;8.10;82.80;;;;;;5011236;28;20482;-78
2021/11/22 00:43:03;;;;;;;0.60;0.38;;;8.10;82.90;;;;;;5011275;28;20034;-79
2021/11/22 00:45:30;;;;;;;1.23;0.30;;;8.10;82.90;;;;;;5011295;28;20037;-78
2021/11/22 00:47:58;;;;;;;2.15;0.30;;;8.10;82.90;;;;;;5013159;28;20025;-77
2021/11/22 00:50:25;;;;;;;0.63;0.30;;;8.10;83.10;;;;;;4991400;28;20518;-77
2021/11/22 00:52:51;;;;;;;2.05;0.32;;;8.10;82.90;;;;;;4991593;28;20095;-76
2021/11/22 00:55:17;;;;;;;1.00;0.30;;;8.10;82.80;;;;;;5010791;28;20113;-76
2021/11/22 00:57:43;;;;;;;2.28;0.40;;;8.00;82.90;;;;;;5011446;28;20034;-77
2021/11/22 01:00:11;;;;;;;1.20;0.40;;;8.00;83.10;;;;;;5012031;28;20026;-77
2021/11/22 01:02:38;;;;;;;0.70;0.17;;;8.00;83.30;;;;;;5014169;28;20033;-76
2021/11/22 01:05:05;;;;;;;0.20;0.20;;;8.10;83.10;;;;;;5011230;28;20128;-76
2021/11/22 01:07:31;;;;;;;0.75;0.35;;;8.00;83.10;;;;;;5010568;28;20193;-76
2021/11/22 01:09:57;;;;;;;0.38;0.10;;;8.00;83.00;;;;;;5010826;28;20509;-77
2021/11/22 01:12:28;;;;;;;0.70;0.30;;;8.00;83.10;;;;;;5012071;28;20029;-77
2021/11/22 01:14:58;;;;;;;1.15;0.40;;;8.00;83.00;;;;;;5017680;28;20029;-77
2021/11/22 01:17:24;;;;;;;1.05;0.40;;;8.00;83.10;;;;;;5017015;28;20059;-78
2021/11/22 01:19:52;;;;;;;1.52;0.30;;;8.00;83.00;;;;;;5012869;28;20513;-78
2021/11/22 01:22:22;;;;;;;0.55;0.30;;;8.00;83.00;;;;;;5010696;28;20030;-77
2021/11/22 01:24:48;;;;;;;1.48;0.20;;;8.00;82.80;;;;;;5010044;28;20088;-76
2021/11/22 01:27:14;;;;;;;2.33;0.50;;;8.00;83.10;;;;;;5010426;28;20022;-76
2021/11/22 01:29:40;;;;;;;1.80;0.30;;;8.00;83.00;;;;;;5014502;28;20058;-77
2021/11/22 01:32:06;;;;;;;1.13;0.20;;;7.90;82.70;;;;;;5006336;28;20061;-77
2021/11/22 01:34:32;;;;;;;1.27;0.30;;;7.90;82.90;;;;;;5010561;28;20104;-78
2021/11/22 01:36:57;;;;;;;1.65;0.20;;;7.90;82.80;;;;;;5010593;28;20026;-77
2021/11/22 01:39:24;;;;;;;1.25;0.32;;;7.90;83.10;;;;;;4992977;28;20125;-77
2021/11/22 01:41:50;;;;;;;0.70;0.20;;;7.90;83.00;;;;;;5012804;28;20022;-77
2021/11/22 01:44:16;;;;;;;1.70;0.40;;;7.80;83.00;;;;;;4993839;28;20042;-77
2021/11/22 01:46:44;;;;;;;1.05;0.20;;;7.80;83.20;;;;;;5009734;28;20065;-77
2021/11/22 01:49:10;;;;;;;1.17;0.28;;;7.80;82.90;;;;;;5010026;28;20034;-76
2021/11/22 01:51:35;;;;;;;2.28;0.30;;;7.80;83.00;;;;;;5010286;28;20041;-77
2021/11/22 01:54:01;;;;;;;0.85;0.32;;;7.80;83.20;;;;;;5011502;28;20513;-78
2021/11/22 01:56:27;;;;;;;1.17;0.30;;;7.80;83.00;;;;;;5011921;28;20029;-78
2021/11/22 01:58:53;;;;;;;1.00;0.32;;;7.80;83.30;;;;;;5009871;28;20033;-77
2021/11/22 02:01:19;;;;;;;1.42;0.40;;;7.70;83.00;;;;;;5010409;28;20037;-77
2021/11/22 02:03:45;;;;;;;1.17;0.25;;;7.70;83.10;;;;;;5010099;28;20501;-78
2021/11/22 02:06:11;;;;;;;0.77;0.40;;;7.70;83.30;;;;;;4994672;28;20034;-78
2021/11/22 02:08:37;;;;;;;2.03;0.28;;;7.60;83.20;;;;;;5013098;28;20495;-78
2021/11/22 02:11:04;;;;;;;3.22;0.45;;;7.60;83.30;;;;;;5009716;28;20088;-77
2021/11/22 02:13:30;;;;;;;1.48;0.30;;;7.70;83.50;;;;;;4992279;28;20030;-76
2021/11/22 02:15:56;;;;;;;0.95;0.30;;;7.70;83.50;;;;;;5009686;28;20463;-77
2021/11/22 02:18:21;;;;;;;1.35;0.22;;;7.70;83.60;;;;;;5009916;28;20076;-78
2021/11/22 02:20:48;;;;;;;1.08;0.40;;;7.70;83.60;;;;;;5012809;28;20030;-77
2021/11/22 02:23:15;;;;;;;1.20;0.30;;;7.60;83.30;;;;;;5010794;28;20034;-78
2021/11/22 02:25:43;;;;;;;0.60;0.40;;;7.60;83.40;;;;;;5009529;28;20034;-77
2021/11/22 02:28:11;;;;;;;1.05;0.40;;;7.60;83.50;;;;;;5010242;28;20505;-77
2021/11/22 02:30:41;;;;;;;1.83;0.30;;;7.60;83.50;;;;;;5009625;28;20057;-76
2021/11/22 02:33:17;;;;;;;0.85;0.30;;;7.50;83.50;;;;;;5010042;28;20022;-77
2021/11/22 02:35:49;;;;;;;0.65;0.22;;;7.60;83.60;;;;;;5009354;28;20568;-79
2021/11/22 02:38:23;;;;;;;0.50;0.20;;;7.60;83.90;;;;;;5011824;28;20033;-77
2021/11/22 02:40:49;;;;;;;1.08;0.30;;;7.60;83.60;;;;;;5009014;28;20117;-78
2021/11/22 02:43:16;;;;;;;1.02;0.20;;;7.50;83.50;;;;;;5008608;28;20124;-78
2021/11/22 02:45:42;;;;;;;1.15;0.30;;;7.50;83.80;;;;;;5005492;28;20493;-78
2021/11/22 02:48:08;;;;;;;1.02;0.25;;;7.40;83.70;;;;;;5009945;28;20117;-78
2021/11/22 02:50:34;;;;;;;0.45;0.20;;;7.50;84.10;;;;;;5011947;28;20075;-77
2021/11/22 02:53:00;;;;;;;0.90;0.30;;;7.50;83.90;;;;;;5009074;28;20018;-78
2021/11/22 02:55:25;;;;;;;1.02;0.30;;;7.40;83.80;;;;;;5010639;28;20045;-78
2021/11/22 02:57:52;;;;;;;1.05;0.20;;;7.40;83.80;;;;;;5008585;28;20033;-77
2021/11/22 03:00:23;;;;;;;0.40;0.20;;;7.40;84.30;;;;;;5010624;28;20034;-77
2021/11/22 03:02:50;;;;;;;3.05;0.30;;;7.30;84.20;;;;;;5011169;28;20173;-77
2021/11/22 03:05:17;;;;;;;1.13;0.20;;;7.30;84.00;;;;;;4993656;28;20514;-77
2021/11/22 03:07:43;;;;;;;1.20;0.32;;;7.30;84.20;;;;;;5008516;28;20087;-77
2021/11/22 03:10:12;;;;;;;0.75;0.30;;;7.30;84.20;;;;;;5008729;28;20034;-76
2021/11/22 03:12:38;;;;;;;1.17;0.40;;;7.30;84.40;;;;;;5008279;28;20018;-78
2021/11/22 03:15:08;;;;;;;0.73;0.20;;;7.30;84.60;;;;;;5010029;28;20038;-77
2021/11/22 03:17:33;;;;;;;1.58;0.40;;;7.30;84.60;;;;;;5011749;28;20029;-76
2021/11/22 03:19:59;;;;;;;1.15;0.40;;;7.30;84.60;;;;;;5008441;28;20034;-77
2021/11/22 03:22:25;;;;;;;0.75;0.30;;;7.20;84.60;;;;;;5007634;28;20026;-78
2021/11/22 03:24:50;;;;;;;1.67;0.40;;;7.20;84.50;;;;;;5008266;28;20061;-76
2021/11/22 03:27:16;;;;;;;1.38;0.28;;;7.20;84.80;;;;;;5008081;28;20494;-78
2021/11/22 03:29:42;;;;;;;1.35;0.30;;;7.20;85.00;;;;;;4994264;28;20048;-77
2021/11/22 03:32:08;;;;;;;1.95;0.40;;;7.20;85.00;;;;;;5008839;28;20033;-77
2021/11/22 03:34:34;;;;;;;1.15;0.25;;;7.20;84.80;;;;;;5008214;28;20029;-77
2021/11/22 03:37:04;;;;;;;1.88;0.20;;;7.10;85.00;;;;;;5008604;28;20022;-76
2021/11/22 03:39:32;;;;;;;4.65;0.40;;;7.10;85.20;;;;;;5008481;28;20479;-77
2021/11/22 03:42:00;;;;;;;2.15;0.30;;;7.20;85.30;;;;;;5010212;28;20054;-77
2021/11/22 03:44:25;;;;;;;1.80;0.47;;;7.10;85.60;;;;;;4989302;28;20089;-76
2021/11/22 03:46:53;;;;;;;1.33;0.28;;;7.20;85.60;;;;;;4988852;28;20049;-76
2021/11/22 03:49:19;;;;;;;1.15;0.30;;;7.20;85.60;;;;;;5008246;28;20037;-77
2021/11/22 03:51:45;;;;;;;1.55;0.43;;;7.20;85.60;;;;;;5008519;28;20110;-76
2021/11/22 03:54:12;;;;;;;1.33;0.40;;;7.10;85.60;;;;;;4993022;28;20199;-77
2021/11/22 03:56:39;;;;;;;1.88;0.50;;;7.10;85.60;;;;;;5011402;28;20026;-76
2021/11/22 03:59:06;;;;;;;1.77;0.30;;;7.10;85.60;;;;;;5008314;28;20518;-76
2021/11/22 04:01:32;;;;;;;1.65;0.35;;;7.10;85.90;;;;;;5009194;28;20135;-76
2021/11/22 04:03:57;;;;;;;0.90;0.30;;;7.20;86.30;;;;;;5010067;28;20498;-77
2021/11/22 04:06:23;;;;;;;1.90;0.50;;;7.20;86.10;;;;;;5006937;28;20034;-76
2021/11/22 04:08:48;;;;;;;3.88;0.45;;;7.20;85.70;;;;;;5010836;28;20030;-76
2021/11/22 04:11:15;;;;;;;1.08;0.30;;;7.10;85.90;;;;;;5008848;28;20121;-76
2021/11/22 04:13:41;;;;;;;3.10;0.50;;;7.10;86.20;;;;;;5007684;28;20120;-77
2021/11/22 04:16:07;;;;;;;3.03;0.38;;;7.10;86.10;;;;;;5008129;28;20598;-76
2021/11/22 04:18:34;;;;;;;1.75;0.40;;;7.10;86.10;;;;;;5007535;28;20483;-76
2021/11/22 04:21:00;;;;;;;2.45;0.60;;;7.10;86.30;;;;;;5009408;28;20022;-76
2021/11/22 04:23:26;;;;;;;2.85;0.50;;;7.10;86.30;;;;;;5008929;28;20034;-76
2021/11/22 04:25:52;;;;;;;3.25;0.50;;;7.10;86.40;;;;;;5011722;28;20125;-75
2021/11/22 04:28:18;;;;;;;3.25;0.40;;;7.10;86.20;;;;;;5010828;28;20482;-76
2021/11/22 04:30:43;;;;;;;2.08;0.35;;;7.10;86.20;;;;;;5012744;28;20022;-76
2021/11/22 04:33:09;;;;;;;3.70;0.60;;;7.10;86.40;;;;;;5012549;28;20380;-75
2021/11/22 04:35:35;;;;;;;2.08;0.47;;;7.10;86.20;;;;;;5014844;28;20033;-76
2021/11/22 04:38:02;;;;;;;2.00;0.40;;;7.10;86.30;;;;;;5010869;28;20040;-76
2021/11/22 04:40:28;;;;;;;2.05;0.40;;;7.10;86.40;;;;;;5010882;28;20030;-76
2021/11/22 04:42:54;;;;;;;2.28;0.40;;;7.10;86.40;;;;;;5011067;28;20085;-76
2021/11/22 04:45:28;;;;;;;2.13;0.60;;;7.10;86.40;;;;;;5011529;28;20046;-77
2021/11/22 04:47:54;;;;;;;2.13;0.43;;;7.10;86.20;;;;;;5014039;28;20084;-76
2021/11/22 04:50:20;;;;;;;3.35;0.40;;;7.10;86.10;;;;;;5012889;28;20028;-77
2021/11/22 04:52:48;;;;;;;2.17;0.50;;;7.10;86.40;;;;;;5010537;28;20034;-77
2021/11/22 04:55:16;;;;;;;1.85;0.40;;;7.10;86.60;;;;;;5011030;28;20071;-77
2021/11/22 04:57:43;;;;;;;2.38;0.45;;;7.10;86.90;;;;;;5011475;28;20371;-76
2021/11/22 05:00:12;;;;;;;2.92;0.50;;;7.10;86.70;;;;;;5011890;28;20138;-77
2021/11/22 05:02:39;;;;;;;1.75;0.50;;;7.10;86.60;;;;;;5014836;28;20073;-76
2021/11/22 05:05:07;;;;;;;2.28;0.57;;;7.10;86.90;;;;;;4996384;28;20041;-76
2021/11/22 05:07:33;;;;;;;2.58;0.43;;;7.10;86.80;;;;;;5010005;28;20054;-76
2021/11/22 05:09:58;;;;;;;2.58;0.40;;;7.10;86.90;;;;;;5010788;28;20084;-76
2021/11/22 05:12:24;;;;;;;1.67;0.50;;;7.00;86.80;;;;;;5010977;28;20033;-77
2021/11/22 05:14:49;;;;;;;2.25;0.55;;;7.00;87.10;;;;;;5013339;28;20037;-77
2021/11/22 05:17:15;;;;;;;2.35;0.63;;;7.00;87.10;;;;;;5013090;28;20040;-77
2021/11/22 05:19:41;;;;;;;1.10;0.30;;;7.00;87.20;;;;;;5011828;28;20066;-77
2021/11/22 05:22:07;;;;;;;1.92;0.68;;;7.10;87.50;;;;;;5012207;28;20038;-77
2021/11/22 05:24:32;;;;;;;3.15;0.40;;;7.10;87.20;;;;;;5011974;28;20065;-77
2021/11/22 05:27:00;;;;;;;1.60;0.40;;;7.10;87.00;;;;;;5011961;28;20053;-77
2021/11/22 05:29:26;;;;;;;1.05;0.32;;;7.10;87.40;;;;;;5014026;28;20022;-77
2021/11/22 05:31:51;;;;;;;0.93;0.30;;;7.10;87.10;;;;;;4993275;28;20061;-77
2021/11/22 05:34:18;;;;;;;1.38;0.30;;;7.10;87.20;;;;;;5010817;28;20034;-77
2021/11/22 05:36:45;;;;;;;2.90;0.40;;;7.10;87.10;;;;;;5009889;28;20364;-77
2021/11/22 05:39:11;;;;;;;3.10;0.45;;;7.10;87.30;;;;;;5010844;28;20038;-77
2021/11/22 05:41:37;;;;;;;1.55;0.30;;;7.00;87.30;;;;;;5013603;28;20025;-77
2021/11/22 05:44:03;;;;;;;5.03;0.50;;;7.10;87.60;;;;;;5009947;28;20042;-77
2021/11/22 05:46:29;;;;;;;1.08;0.30;;;7.00;87.20;;;;;;5010259;28;20030;-76
2021/11/22 05:48:55;;;;;;;1.75;0.45;;;7.00;87.10;;;;;;4993674;28;20029;-77
2021/11/22 05:51:21;;;;;;;2.88;0.43;;;7.00;87.10;;;;;;5009347;28;20018;-76
2021/11/22 05:53:49;;;;;;;2.78;0.35;;;7.00;87.10;;;;;;5012094;28;20108;-76
2021/11/22 05:56:17;;;;;;;3.28;0.88;;;7.00;88.30;;;;;;5011203;28;20517;-75
2021/11/22 05:58:43;;;;;;;2.22;0.55;;;7.00;87.10;;;;;;5009834;28;20037;-77
2021/11/22 06:01:09;;;;;;;2.63;0.45;;;7.00;87.60;;;;;;5011035;28;20423;-76
2021/11/22 06:03:35;;;;;;;1.92;0.85;;;7.00;87.50;;;;;;5009921;28;20077;-77
2021/11/22 06:06:01;;;;;;;2.60;0.45;;;7.00;87.50;;;;;;5011722;28;20041;-77
2021/11/22 06:08:27;;;;;;;2.63;0.60;;;7.00;87.20;;;;;;5011392;28;20042;-77
2021/11/22 06:10:53;;;;;;;3.28;0.50;;;7.00;87.40;;;;;;4992296;28;20026;-77
2021/11/22 06:13:20;;;;;;;1.70;0.40;;;7.10;87.40;;;;;;5009802;28;20054;-77
2021/11/22 06:15:47;;;;;;;2.97;0.40;;;7.00;87.30;;;;;;5012334;28;20014;-77
2021/11/22 06:18:14;;;;;;;3.00;0.80;;;7.00;87.20;;;;;;5010393;28;20025;-78
2021/11/22 06:20:40;;;;;;;3.22;0.88;;;7.00;87.50;;;;;;4991193;28;20394;-77
2021/11/22 06:23:06;;;;;;;2.95;0.65;;;7.00;87.40;;;;;;4992063;28;20430;-77
2021/11/22 06:25:32;;;;;;;0.85;0.40;;;7.00;87.40;;;;;;5010352;28;20034;-77
2021/11/22 06:27:58;;;;;;;2.88;0.60;;;7.00;87.30;;;;;;5010642;28;20032;-77
2021/11/22 06:30:25;;;;;;;2.78;0.85;;;7.00;87.10;;;;;;5009442;28;20498;-77
2021/11/22 06:32:53;;;;;;;3.42;0.52;;;7.00;87.10;;;;;;5011551;28;20041;-78
2021/11/22 06:35:19;;;;;;;1.80;0.60;;;7.00;87.10;;;;;;4992778;28;20057;-77
2021/11/22 06:37:46;;;;;;;1.23;0.40;;;7.00;87.10;;;;;;5009283;28;20360;-77
2021/11/22 06:40:12;;;;;;;1.83;0.40;;;7.00;87.10;;;;;;5010441;28;20034;-77
2021/11/22 06:42:38;;;;;;;4.55;0.73;;;7.00;86.90;;;;;;5009106;28;20014;-78
2021/11/22 06:45:05;;;;;;;2.03;0.40;;;7.00;86.90;;;;;;5010698;28;20112;-77
2021/11/22 06:47:31;;;;;;;2.47;0.40;;;7.00;87.00;;;;;;4989974;28;20033;-76
2021/11/22 06:49:57;;;;;;;3.85;0.63;;;7.00;86.70;;;;;;5007548;28;20029;-76
2021/11/22 06:52:23;;;;;;;2.92;0.38;;;7.10;86.90;;;;;;4993979;28;20179;-78
2021/11/22 06:54:50;;;;;;;3.25;0.47;;;7.10;86.60;;;;;;5014307;28;20420;-76
2021/11/22 06:57:17;;;;;;;2.65;0.47;;;7.00;86.60;;;;;;5009874;28;20084;-77
2021/11/22 06:59:43;;;;;;;3.50;0.63;;;7.10;86.80;;;;;;5012745;28;20053;-76
2021/11/22 07:02:18;;;;;;;2.58;0.60;;;7.10;87.40;;;;;;5010536;28;20119;-78
2021/11/22 07:04:46;;;;;;;3.03;0.70;;;7.00;86.30;;;;;;5005368;28;20561;-75
2021/11/22 07:07:13;;;;;;;2.40;0.50;;;7.10;86.60;;;;;;5008278;28;20042;-76
2021/11/22 07:09:39;;;;;;;2.90;0.50;;;7.00;86.60;;;;;;5010764;28;20025;-76
2021/11/22 07:12:05;;;;;;;2.03;0.40;;;7.10;86.60;;;;;;5010115;28;20033;-76
2021/11/22 07:14:33;;;;;;;2.90;0.60;;;7.10;87.30;;;;;;4993666;28;20029;-77
2021/11/22 07:16:58;;;;;;;3.00;0.50;;;7.10;86.20;;;;;;5008796;28;20109;-76
2021/11/22 07:19:24;;;;;;;3.65;0.65;;;7.10;86.20;;;;;;5009573;28;20113;-76
2021/11/22 07:21:52;;;;;;;2.05;0.47;;;7.10;86.30;;;;;;5008755;28;20061;-77
2021/11/22 07:24:18;;;;;;;3.92;0.60;;;7.10;86.20;;;;;;5009897;28;20386;-77
2021/11/22 07:26:43;;;;;;;2.75;0.50;;;7.10;86.20;;;;;;5012133;28;20080;-77
2021/11/22 07:29:09;;;;;;;1.58;0.50;;;7.10;86.30;;;;;;4994123;28;20041;-77
2021/11/22 07:31:35;;;;;;;2.00;0.50;;;7.10;86.40;;;;;;5006812;28;20128;-77
2021/11/22 07:34:01;;;;;;;3.90;0.63;;;7.10;86.40;;;;;;5008877;28;20021;-76
2021/11/22 07:36:27;;;;;;;4.07;0.50;;;7.20;86.40;;;;;;5022926;28;20462;-77
2021/11/22 07:38:53;;;;;;;3.83;0.70;;;7.20;86.60;;;;;;5016750;28;20044;-78
2021/11/22 07:41:19;;;;;;;3.83;0.68;;;7.20;86.70;;;;;;5018724;28;20025;-77
2021/11/22 07:43:46;;;;;;;3.25;0.88;;;7.30;86.80;;;;;;5014202;28;20034;-77
2021/11/22 07:46:12;;;;;;;3.08;0.93;;;7.50;87.20;;;;;;5013506;28;20490;-77
2021/11/22 07:48:37;;;;;;;2.65;0.80;;;7.70;87.10;;;;;;5003989;28;20037;-77
2021/11/22 07:51:04;;;;;;;2.72;0.57;;;7.90;87.10;;;;;;5004547;28;20036;-79
2021/11/22 07:53:30;;;;;;;3.65;0.63;;;8.20;86.20;;;;;;5016730;28;20064;-77
2021/11/22 07:55:56;;;;;;;3.22;0.75;;;8.40;86.00;;;;;;5011086;28;20045;-78
2021/11/22 07:58:22;;;;;;;2.92;0.60;;;8.50;84.90;;;;;;5014144;28;20030;-79
2021/11/22 08:00:48;;;;;;;1.05;0.60;;;8.70;85.00;;;;;;5024225;28;20036;-79
2021/11/22 08:03:14;;;;;;;2.35;0.70;;;8.90;85.70;;;;;;5011271;28;20041;-77
2021/11/22 08:05:40;;;;;;;3.47;0.85;;;9.10;84.10;;;;;;5023563;28;20037;-78
2021/11/22 08:08:06;;;;;;;2.38;0.80;;;9.30;83.50;;;;;;5013404;28;20169;-79
2021/11/22 08:10:34;;;;;;;2.15;0.63;;;9.40;83.50;;;;;;5019439;28;20100;-80
2021/11/22 08:13:02;;;;;;;2.53;0.65;;;9.60;82.70;;;;;;5022771;28;20053;-79
2021/11/22 08:15:31;;;;;;;3.35;0.77;;;9.90;82.10;;;;;;5016273;28;20026;-80
2021/11/22 08:18:00;;;;;;;4.28;0.80;;;10.20;82.50;;;;;;5026582;28;20017;-79
2021/11/22 08:20:26;;;;;;;2.50;0.75;;;10.40;81.50;;;;;;5016987;28;20025;-80
2021/11/22 08:22:52;;;;;;;4.05;0.70;;;10.60;80.50;;;;;;5019447;28;20612;-79
2021/11/22 08:25:20;;;;;;;2.83;0.65;;;10.80;79.50;;;;;;5019844;28;20057;-79
2021/11/22 08:27:47;;;;;;;4.07;0.90;;;10.90;79.20;;;;;;5016063;28;20033;-79
2021/11/22 08:30:17;;;;;;;4.22;0.75;;;11.00;78.00;;;;;;5004880;28;20045;-78
2021/11/22 08:32:45;;;;;;;1.90;0.70;;;11.20;78.60;;;;;;5010948;28;20149;-77
2021/11/22 08:35:12;;;;;;;2.67;0.70;;;11.30;77.50;;;;;;5003508;28;20434;-78
2021/11/22 08:37:39;;;;;;;2.88;0.70;;;11.40;77.20;;;;;;5016919;28;20033;-78
2021/11/22 08:40:09;;;;;;;4.68;0.88;;;11.60;77.00;;;;;;5015898;28;20030;-78
2021/11/22 08:42:35;;;;;;;4.05;0.90;;;11.90;75.80;;;;;;5000078;28;20109;-78
2021/11/22 08:45:01;;;;;;;3.65;0.80;;;12.10;75.10;;;;;;5017325;28;20040;-79
2021/11/22 08:47:28;;;;;;;1.98;0.60;;;12.30;75.20;;;;;;5023310;28;20108;-79
2021/11/22 08:49:54;;;;;;;3.22;0.73;;;12.50;74.30;;;;;;5014711;28;20038;-77
2021/11/22 08:52:20;;;;;;;2.65;0.70;;;12.80;73.50;;;;;;5000925;28;20092;-78
2021/11/22 08:54:46;;;;;;;3.05;0.70;;;12.90;71.40;;;;;;5024045;28;20033;-77
2021/11/22 08:57:12;;;;;;;3.00;0.80;;;13.00;72.20;;;;;;5004004;28;20092;-79
2021/11/22 08:59:38;;;;;;;1.80;0.60;;;13.20;71.80;;;;;;5018741;28;20501;-78
2021/11/22 09:02:04;;;;;;;3.15;0.80;;;13.40;70.30;;;;;;4981708;28;20790;-79
2021/11/22 09:04:30;;;;;;;2.15;0.50;;;13.50;69.50;;;;;;4992051;28;20042;-78
2021/11/22 09:06:57;;;;;;;2.83;0.90;;;13.60;69.30;;;;;;5008030;28;20075;-70
2021/11/22 09:09:22;;;;;;;3.03;0.70;;;13.60;68.20;;;;;;5013460;28;20442;-66
2021/11/22 09:11:49;;;;;;;1.90;0.43;;;13.60;67.00;;;;;;5015488;28;20021;-68
2021/11/22 09:14:15;;;;;;;2.75;0.70;;;13.40;68.00;;;;;;5012363;28;20040;-68
2021/11/22 09:16:42;;;;;;;2.90;0.70;;;13.40;67.50;;;;;;5017357;28;20443;-69
2021/11/22 09:19:08;;;;;;;2.35;0.75;;;13.30;66.70;;;;;;5021240;28;20048;-69
2021/11/22 09:21:34;;;;;;;4.10;0.70;;;13.40;66.30;;;;;;5019760;28;20092;-69
2021/11/22 09:24:02;;;;;;;2.40;0.65;;;13.40;66.40;;;;;;5005024;28;20051;-69
2021/11/22 09:26:28;;;;;;;2.00;0.60;;;13.50;66.90;;;;;;5013829;28;20029;-65
2021/11/22 09:28:54;;;;;;;2.28;0.57;;;13.50;65.50;;;;;;5015923;28;20033;-65
2021/11/22 09:31:20;;;;;;;4.15;0.40;;;13.70;65.30;;;;;;5015239;28;20096;-65
2021/11/22 09:33:47;;;;;;;2.22;0.57;;;14.00;64.20;;;;;;5013795;28;20490;-64
2021/11/22 09:36:13;;;;;;;2.00;0.60;;;14.00;62.10;;;;;;5013642;28;20071;-65
2021/11/22 09:38:40;;;;;;;3.70;0.68;;;14.10;64.50;;;;;;5015844;28;20063;-65
2021/11/22 09:41:06;;;;;;;2.65;0.60;;;14.40;63.20;;;;;;5014402;28;20037;-65
2021/11/22 09:43:33;;;;;;;2.63;0.57;;;14.50;60.30;;;;;;5013367;28;20034;-65
2021/11/22 09:45:59;;;;;;;2.22;0.40;;;14.40;60.70;;;;;;4999217;28;20037;-65
2021/11/22 09:48:26;;;;;;;1.20;0.50;;;14.30;60.00;;;;;;5012679;28;20156;-66
2021/11/22 09:50:52;;;;;;;2.65;0.60;;;14.50;61.50;;;;;;4998102;28;20022;-66
2021/11/22 09:53:18;;;;;;;1.48;0.50;;;14.50;59.70;;;;;;5019290;28;20026;-66
2021/11/22 09:55:44;;;;;;;2.67;0.52;;;14.60;58.80;;;;;;5013224;28;20022;-66
2021/11/22 09:58:12;;;;;;;1.38;0.40;;;14.80;59.80;;;;;;5013407;28;20040;-66
2021/11/22 10:00:42;;;;;;;1.98;0.52;;;14.70;56.50;;;;;;5022231;28;20025;-65
2021/11/22 10:03:13;;;;;;;1.85;0.70;;;14.80;58.40;;;;;;5015002;28;20037;-65
2021/11/22 10:05:42;;;;;;;3.10;0.75;;;15.00;58.00;;;;;;5024655;28;20579;-64
2021/11/22 10:08:13;;;;;;;1.00;0.40;;;15.20;58.30;;;;;;5010308;28;20037;-64
2021/11/22 10:10:41;;;;;;;1.50;0.45;;;15.10;58.60;;;;;;5008817;28;20017;-64
2021/11/22 10:13:41;;;;;;;2.63;0.57;;;15.50;58.30;;;;;;5018511;28;20018;-65
2021/11/22 10:16:13;;;;;;;2.45;0.60;;;15.40;58.50;;;;;;5012866;28;20026;-64
2021/11/22 10:18:46;;;;;;;1.02;0.40;;;15.70;58.60;;;;;;4997935;28;20061;-64
2021/11/22 10:21:16;;;;;;;0.85;0.40;;;15.60;54.90;;;;;;5013028;28;20045;-64
2021/11/22 10:23:46;;;;;;;1.25;0.40;;;15.60;54.20;;;;;;4994807;28;20069;-65
2021/11/22 10:26:15;;;;;;;1.90;0.50;;;15.60;55.60;;;;;;5010485;28;20035;-65
2021/11/22 10:28:46;;;;;;;2.75;0.38;;;15.20;50.20;;;;;;5011243;28;20018;-65
2021/11/22 10:31:26;;;;;;;1.70;0.38;;;15.20;54.40;;;;;;5009217;28;20124;-65
2021/11/22 10:33:56;;;;;;;2.55;0.43;;;15.20;55.70;;;;;;4998621;28;20032;-64
2021/11/22 10:36:24;;;;;;;0.60;0.40;;;15.30;52.70;;;;;;5023064;28;20105;-65
2021/11/22 10:38:53;;;;;;;0.50;0.30;;;15.30;51.80;;;;;;5015067;28;20065;-65
2021/11/22 10:41:30;;;;;;;2.20;0.73;;;15.50;52.10;;;;;;5019414;28;20402;-65
2021/11/22 10:44:03;;;;;;;1.00;0.32;;;15.60;55.30;;;;;;5010570;28;20030;-65
2021/11/22 10:46:45;;;;;;;1.17;0.30;;;15.90;53.60;;;;;;5014896;28;20036;-64
2021/11/22 10:49:27;;;;;;;1.55;0.30;;;15.90;53.40;;;;;;5016260;28;20021;-64
2021/11/22 10:52:06;;;;;;;1.23;0.30;;;15.90;50.60;;;;;;5013044;28;20037;-63
2021/11/22 10:54:36;;;;;;;0.80;0.30;;;15.80;50.10;;;;;;5023027;28;20426;-65
2021/11/22 10:57:12;;;;;;;1.90;0.30;;;15.90;51.20;;;;;;5013129;28;20490;-81
2021/11/22 10:59:37;;;;;;;3.13;0.30;;;16.10;51.50;;;;;;5023335;28;20052;-72
2021/11/22 11:02:03;;;;;;;1.52;0.30;;;16.20;49.80;;;;;;5009253;28;20026;-71
2021/11/22 11:04:31;;;;;;;2.28;0.40;;;16.30;48.50;;;;;;5011743;28;20038;-72
2021/11/22 11:07:01;;;;;;;2.00;0.30;;;16.40;47.80;;;;;;5010770;28;20056;-71
2021/11/22 11:09:50;;;;;;;1.35;0.30;;;16.50;49.10;;;;;;5016600;28;20030;-72
2021/11/22 11:12:18;;;;;;;0.70;0.30;;;16.60;48.10;;;;;;5018988;28;20064;-71
2021/11/22 11:14:49;;;;;;;2.53;0.40;;;16.50;47.40;;;;;;5012162;28;20055;-76
2021/11/22 11:17:26;;;;;;;1.38;0.50;;;16.30;46.60;;;;;;5018223;28;20037;-73
2021/11/22 11:19:56;;;;;;;0.80;0.30;;;16.50;46.70;;;;;;5012383;28;20033;-74
2021/11/22 11:22:28;;;;;;;1.05;0.40;;;16.40;44.10;;;;;;5014582;28;20029;-71
2021/11/22 11:24:57;;;;;;;0.80;0.30;;;16.50;48.60;;;;;;5010412;28;20040;-66
2021/11/22 11:27:23;;;;;;;0.82;0.43;;;16.70;47.40;;;;;;5012844;28;20301;-66
2021/11/22 11:29:49;;;;;;;0.77;0.40;;;16.40;46.20;;;;;;5001705;28;20045;-66
2021/11/22 11:32:15;;;;;;;1.60;0.43;;;16.60;45.80;;;;;;5013134;28;20030;-65
2021/11/22 11:34:43;;;;;;;1.58;0.35;;;16.50;45.20;;;;;;5015666;28;20029;-66
2021/11/22 11:37:18;;;;;;;1.60;0.60;;;16.00;42.70;;;;;;5017841;28;20034;-66
2021/11/22 11:40:25;;;;;;;1.17;0.40;;;15.90;44.30;;;;;;5013691;28;20029;-64
2021/11/22 11:43:28;;;;;;;0.95;0.40;;;15.60;44.20;;;;;;4989346;28;20049;-65
2021/11/22 11:46:09;;;;;;;1.33;0.57;;;15.80;45.70;;;;;;5012633;28;20069;-65
2021/11/22 11:49:01;;;;;;;1.35;0.40;;;16.00;43.90;;;;;;4996812;28;20113;-65
2021/11/22 11:51:39;;;;;;;1.35;0.40;;;16.20;44.50;;;;;;5006036;28;20556;-63
2021/11/22 11:54:09;;;;;;;1.05;0.32;;;16.40;45.60;;;;;;5018955;28;20509;-63
2021/11/22 11:57:04;;;;;;;1.25;0.40;;;16.70;45.50;;;;;;5022314;28;20024;-65
2021/11/22 11:59:42;;;;;;;1.27;0.28;;;17.00;46.00;;;;;;4993634;28;20057;-67
2021/11/22 12:02:26;;;;;;;2.10;0.70;;;17.30;43.90;;;;;;5010399;28;20030;-65
2021/11/22 12:04:59;;;;;;;0.88;0.50;;;17.10;45.30;;;;;;5007388;28;20417;-64
2021/11/22 12:07:28;;;;;;;1.67;0.20;;;16.70;43.80;;;;;;5008315;28;20558;-65
2021/11/22 12:10:15;;;;;;;0.73;0.40;;;16.90;44.20;;;;;;4997827;28;20076;-64
2021/11/22 12:12:57;;;;;;;0.82;0.30;;;17.10;43.20;;;;;;5016117;28;20034;-64
2021/11/22 12:15:24;;;;;;;1.13;0.30;;;16.50;40.00;;;;;;5012579;28;20034;-64
2021/11/22 12:18:32;;;;;;;1.45;0.40;;;16.40;42.40;;;;;;5022576;28;20032;-64
2021/11/22 12:21:07;;;;;;;0.77;0.30;;;16.70;42.00;;;;;;5016484;28;20037;-62
2021/11/22 12:23:46;;;;;;;0.43;0.22;;;16.60;41.00;;;;;;5013058;28;20034;-63
2021/11/22 12:26:14;;;;;;;2.10;0.40;;;16.70;40.20;;;;;;5011262;28;20033;-61
2021/11/22 12:28:43;;;;;;;0.88;0.30;;;16.50;41.00;;;;;;5006730;28;20048;-61
2021/11/22 12:31:22;;;;;;;2.47;0.30;;;16.80;42.10;;;;;;5007930;28;20026;-62
2021/11/22 12:33:55;;;;;;;1.23;0.50;;;16.90;39.60;;;;;;5006643;28;20092;-62
2021/11/22 12:36:24;;;;;;;0.65;0.30;;;17.50;40.70;;;;;;5009794;28;20084;-62
2021/11/22 12:38:50;;;;;;;0.95;0.40;;;18.20;41.60;;;;;;5008192;28;20026;-61
2021/11/22 12:41:31;;;;;;;1.42;0.32;;;17.60;38.20;;;;;;5008780;28;20033;-63
2021/11/22 12:44:08;;;;;;;1.40;0.40;;;17.90;40.10;;;;;;5008131;28;20123;-62
2021/11/22 12:46:36;;;;;;;0.82;0.38;;;19.20;40.30;;;;;;5010061;28;20453;-62
2021/11/22 12:49:36;;;;;;;0.65;0.32;;;19.40;36.10;;;;;;5012010;28;20030;-62
2021/11/22 12:52:20;;;;;;;2.65;0.57;;;18.10;37.20;;;;;;5009051;28;20033;-63
2021/11/22 12:54:46;;;;;;;0.90;0.40;;;19.30;38.10;;;;;;5011519;28;20095;-62
2021/11/22 12:57:31;;;;;;;0.70;0.32;;;19.50;33.90;;;;;;5000690;28;20167;-61
2021/11/22 13:00:10;;;;;;;0.60;0.47;;;18.50;34.10;;;;;;5011970;28;20034;-61